createdAt,value
2023-01-19T00:01:50.272Z,19.52
2023-01-19T00:04:16.585Z,20.13
2023-01-19T00:06:42.887Z,17.75
2023-01-19T00:09:09.222Z,20.75
2023-01-19T00:11:35.656Z,24.30
2023-01-19T00:14:02.320Z,25.50
2023-01-19T00:16:28.760Z,28.95
2023-01-19T00:18:55.095Z,21.80
2023-01-19T00:21:21.937Z,19.25
2023-01-19T00:23:48.793Z,21.48
2023-01-19T00:26:16.130Z,27.65
2023-01-19T00:28:43.571Z,18.75
2023-01-19T00:31:10.366Z,26.90
2023-01-19T00:33:36.784Z,24.38
2023-01-19T00:36:03.928Z,21.35
2023-01-19T00:38:30.536Z,22.02
2023-01-19T00:40:56.851Z,25.65
2023-01-19T00:43:23.180Z,23.83
2023-01-19T00:45:49.520Z,21.10
2023-01-19T00:48:15.883Z,19.38
2023-01-19T00:50:42.603Z,18.10
2023-01-19T00:53:09.543Z,20.80
2023-01-19T00:55:38.723Z,20.25
2023-01-19T00:58:05.030Z,22.38
2023-01-19T01:00:31.337Z,22.77
2023-01-19T01:02:57.838Z,20.33
2023-01-19T01:05:24.502Z,24.42
2023-01-19T01:07:50.992Z,20.73
2023-01-19T01:10:21.122Z,25.63
2023-01-19T01:13:20.604Z,25.70
2023-01-19T01:15:34.360Z,23.23
2023-01-19T01:18:00.949Z,25.77
2023-01-19T01:20:28.275Z,24.45
2023-01-19T01:22:55.397Z,27.35
2023-01-19T01:25:23.869Z,25.25
2023-01-19T01:27:50.396Z,22.30
2023-01-19T01:30:17.635Z,22.45
2023-01-19T01:32:44.006Z,24.88
2023-01-19T01:35:12.069Z,22.60
2023-01-19T01:37:38.971Z,26.80
2023-01-19T01:40:06.724Z,20.83
2023-01-19T01:42:33.725Z,24.23
2023-01-19T01:45:03.526Z,26.67
2023-01-19T01:47:36.474Z,25.88
2023-01-19T01:50:12.596Z,21.67
2023-01-19T01:52:44.903Z,27.02
2023-01-19T01:55:32.559Z,25.67
2023-01-19T01:58:04.114Z,23.48
2023-01-19T02:00:31.334Z,20.85
2023-01-19T02:02:58.534Z,23.50
2023-01-19T02:05:33.183Z,22.70
2023-01-19T02:08:07.753Z,20.77
2023-01-19T02:10:34.045Z,23.50
2023-01-19T02:13:00.959Z,22.60
2023-01-19T02:15:27.469Z,24.35
2023-01-19T02:17:53.821Z,25.58
2023-01-19T02:20:24.955Z,25.90
2023-01-19T02:22:52.239Z,24.17
2023-01-19T02:25:19.931Z,30.13
2023-01-19T02:27:47.773Z,21.80
2023-01-19T02:30:14.999Z,25.15
2023-01-19T02:32:41.372Z,24.45
2023-01-19T02:35:08.089Z,22.50
2023-01-19T02:37:37.037Z,27.50
2023-01-19T02:40:06.222Z,25.33
2023-01-19T02:42:37.818Z,26.17
2023-01-19T02:45:05.268Z,27.92
2023-01-19T02:47:38.644Z,25.15
2023-01-19T02:50:36.370Z,24.98
2023-01-19T02:53:32.497Z,29.38
2023-01-19T02:56:04.794Z,26.80
2023-01-19T02:58:44.925Z,24.80
2023-01-19T03:01:21.568Z,26.35
2023-01-19T03:04:02.187Z,23.20
2023-01-19T03:06:44.199Z,28.40
2023-01-19T03:09:33.859Z,25.25
2023-01-19T03:12:08.723Z,29.90
2023-01-19T03:17:09.605Z,24.45
2023-01-19T03:19:44.815Z,28.27
2023-01-19T03:22:14.847Z,24.50
2023-01-19T03:24:44.934Z,25.95
2023-01-19T03:27:29.024Z,24.77
2023-01-19T03:30:01.953Z,25.08
2023-01-19T03:32:34.295Z,26.95
2023-01-19T03:35:03.691Z,28.10
2023-01-19T03:37:31.606Z,28.73
2023-01-19T03:39:58.127Z,23.45
2023-01-19T03:42:27.009Z,24.90
2023-01-19T03:44:55.180Z,26.25
2023-01-19T03:47:23.296Z,28.23
2023-01-19T03:49:52.406Z,30.25
2023-01-19T03:52:27.205Z,24.75
2023-01-19T03:57:19.850Z,23.63
2023-01-19T03:59:46.147Z,22.95
2023-01-19T04:02:12.505Z,25.92
2023-01-19T04:04:38.923Z,24.10
2023-01-19T04:07:05.228Z,25.50
2023-01-19T04:09:31.539Z,28.10
2023-01-19T04:11:57.828Z,30.85
2023-01-19T04:14:24.124Z,26.92
2023-01-19T04:16:50.419Z,25.48
2023-01-19T04:19:16.724Z,25.17
2023-01-19T04:21:43.016Z,25.30
2023-01-19T04:24:10.573Z,24.75
2023-01-19T04:26:36.861Z,26.63
2023-01-19T04:29:03.289Z,29.27
2023-01-19T04:31:29.743Z,26.10
2023-01-19T04:33:56.147Z,24.58
2023-01-19T04:36:22.504Z,23.45
2023-01-19T04:38:48.873Z,25.02
2023-01-19T04:41:15.234Z,22.25
2023-01-19T04:43:41.563Z,26.42
2023-01-19T04:46:07.971Z,21.70
2023-01-19T04:48:34.372Z,20.85
2023-01-19T04:51:00.670Z,28.23
2023-01-19T04:53:26.981Z,23.63
2023-01-19T04:55:56.073Z,32.47
2023-01-19T04:58:22.669Z,27.50
2023-01-19T05:00:49.100Z,26.17
2023-01-19T05:03:15.500Z,26.20
2023-01-19T05:05:41.861Z,24.42
2023-01-19T05:08:08.180Z,23.45
2023-01-19T05:10:34.471Z,26.60
2023-01-19T05:13:01.165Z,22.50
2023-01-19T05:15:27.709Z,21.17
2023-01-19T05:17:54.028Z,21.23
2023-01-19T05:20:20.324Z,20.95
2023-01-19T05:22:51.090Z,22.45
2023-01-19T05:25:18.375Z,21.40
2023-01-19T05:27:45.162Z,21.33
2023-01-19T05:30:13.078Z,20.55
2023-01-19T05:32:39.750Z,21.05
2023-01-19T05:35:06.673Z,23.45
2023-01-19T05:37:33.051Z,22.77
2023-01-19T05:39:59.620Z,18.75
2023-01-19T05:42:25.944Z,19.88
2023-01-19T05:44:54.562Z,22.67
2023-01-19T05:47:20.967Z,19.65
2023-01-19T05:49:47.286Z,22.08
2023-01-19T05:52:13.700Z,20.63
2023-01-19T05:54:40.012Z,20.90
2023-01-19T05:57:07.028Z,24.75
2023-01-19T05:59:33.463Z,19.48
2023-01-19T06:01:59.817Z,22.02
2023-01-19T06:04:26.171Z,19.13
2023-01-19T06:06:52.504Z,20.90
2023-01-19T06:09:19.037Z,20.92
2023-01-19T06:11:46.320Z,21.70
2023-01-19T06:14:13.270Z,19.33
2023-01-19T06:16:39.955Z,18.33
2023-01-19T06:19:06.455Z,20.40
2023-01-19T06:21:33.695Z,23.92
2023-01-19T06:24:00.168Z,19.95
2023-01-19T06:26:26.516Z,20.30
2023-01-19T06:28:52.850Z,19.17
2023-01-19T06:31:19.250Z,22.15
2023-01-19T06:33:45.594Z,23.23
2023-01-19T06:36:11.897Z,27.60
2023-01-19T06:38:38.279Z,21.95
2023-01-19T06:41:04.727Z,22.75
2023-01-19T06:43:31.578Z,22.33
2023-01-19T06:45:58.394Z,24.48
2023-01-19T06:48:24.720Z,20.80
2023-01-19T06:50:51.031Z,20.23
2023-01-19T06:53:17.928Z,24.75
2023-01-19T06:55:44.308Z,27.15
2023-01-19T06:58:11.660Z,24.02
2023-01-19T07:00:38.310Z,22.30
2023-01-19T07:03:08.446Z,24.95
2023-01-19T07:05:36.046Z,21.40
2023-01-19T07:08:02.565Z,21.45
2023-01-19T07:11:25.160Z,23.65
2023-01-19T07:13:15.772Z,19.98
2023-01-19T07:15:42.106Z,21.10
2023-01-19T07:18:08.592Z,17.23
2023-01-19T07:20:36.000Z,17.88
2023-01-19T07:23:02.777Z,18.77
2023-01-19T07:25:29.944Z,18.20
2023-01-19T07:27:58.371Z,18.70
2023-01-19T07:30:24.747Z,30.10
2023-01-19T07:32:51.058Z,18.50
2023-01-19T07:35:17.350Z,19.08
2023-01-19T07:37:43.641Z,20.35
2023-01-19T07:40:10.677Z,16.80
2023-01-19T07:42:36.980Z,15.60
2023-01-19T07:45:03.493Z,19.48
2023-01-19T07:47:29.861Z,18.67
2023-01-19T07:49:56.166Z,19.45
2023-01-19T07:52:22.621Z,19.67
2023-01-19T07:54:48.979Z,20.27
2023-01-19T07:57:15.280Z,23.45
2023-01-19T07:59:41.579Z,20.88
2023-01-19T08:02:10.560Z,21.85
2023-01-19T08:04:37.017Z,23.58
2023-01-19T08:07:03.416Z,19.83
2023-01-19T08:09:29.721Z,20.60
2023-01-19T08:11:56.023Z,19.88
2023-01-19T08:14:22.352Z,21.10
2023-01-19T08:16:48.662Z,19.23
2023-01-19T08:19:14.955Z,19.08
2023-01-19T08:21:41.279Z,21.25
2023-01-19T08:24:18.170Z,22.05
2023-01-19T08:26:44.522Z,20.35
2023-01-19T08:29:10.814Z,21.88
2023-01-19T08:31:37.178Z,21.33
2023-01-19T08:34:03.550Z,19.33
2023-01-19T08:36:29.848Z,18.33
2023-01-19T08:38:56.239Z,21.70
2023-01-19T08:41:22.600Z,15.93
2023-01-19T08:43:49.344Z,21.45
2023-01-19T08:46:16.029Z,18.02
2023-01-19T08:48:42.395Z,19.55
2023-01-19T08:51:08.693Z,22.38
2023-01-19T08:53:34.986Z,17.65
2023-01-19T08:56:01.342Z,17.77
2023-01-19T08:58:28.006Z,18.55
2023-01-19T09:00:54.863Z,18.67
2023-01-19T09:03:21.568Z,17.42
2023-01-19T09:05:48.317Z,15.40
2023-01-19T09:08:15.707Z,17.40
2023-01-19T09:10:50.022Z,18.20
2023-01-19T09:13:17.654Z,18.35
2023-01-19T09:15:45.287Z,16.85
2023-01-19T09:18:14.856Z,17.52
2023-01-19T09:20:42.505Z,19.85
2023-01-19T09:23:10.295Z,16.77
2023-01-19T09:25:38.051Z,17.08
2023-01-19T09:28:08.948Z,15.05
2023-01-19T09:30:40.102Z,16.95
2023-01-19T09:33:09.547Z,20.23
2023-01-19T09:35:36.617Z,16.85
2023-01-19T09:38:03.627Z,18.17
2023-01-19T09:40:30.535Z,14.23
2023-01-19T09:43:11.676Z,16.05
2023-01-19T09:45:56.442Z,17.02
2023-01-19T09:48:28.622Z,15.02
2023-01-19T09:50:59.379Z,12.48
2023-01-19T09:53:39.368Z,14.52
2023-01-19T09:56:10.765Z,13.52
2023-01-19T09:58:37.063Z,13.23
2023-01-19T10:01:15.393Z,14.10
2023-01-19T10:03:41.765Z,18.63
2023-01-19T10:06:14.200Z,13.65
2023-01-19T10:09:14.762Z,15.63
2023-01-19T10:11:52.984Z,14.38
2023-01-19T10:14:36.385Z,13.75
2023-01-19T10:17:21.195Z,14.10
2023-01-19T10:19:53.737Z,18.17
2023-01-19T10:22:22.915Z,14.90
2023-01-19T10:24:54.626Z,17.17
2023-01-19T10:27:26.352Z,13.30
2023-01-19T10:29:52.687Z,12.95
2023-01-19T10:32:25.009Z,15.23
2023-01-19T10:34:52.838Z,17.33
2023-01-19T10:37:39.755Z,14.05
2023-01-19T10:40:09.155Z,12.60
2023-01-19T10:42:37.149Z,14.18
2023-01-19T10:45:04.368Z,11.73
2023-01-19T10:47:35.068Z,10.95
2023-01-19T10:50:23.089Z,9.23
2023-01-19T10:52:51.429Z,8.88
2023-01-19T10:55:31.229Z,10.35
2023-01-19T10:57:59.110Z,8.45
2023-01-19T11:00:31.549Z,11.80
2023-01-19T11:02:57.887Z,7.10
2023-01-19T11:05:30.171Z,8.70
2023-01-19T11:07:56.997Z,7.95
2023-01-19T11:10:25.975Z,8.00
2023-01-19T11:13:03.208Z,8.55
2023-01-19T11:15:33.062Z,8.05
2023-01-19T11:17:59.808Z,11.90
2023-01-19T11:20:29.934Z,8.23
2023-01-19T11:23:22.189Z,8.85
2023-01-19T11:25:50.092Z,7.68
2023-01-19T11:28:32.715Z,7.85
2023-01-19T11:31:01.615Z,9.48
2023-01-19T11:33:37.774Z,9.90
2023-01-19T11:36:15.711Z,9.88
2023-01-19T11:38:44.836Z,10.50
2023-01-19T11:41:32.773Z,12.63
2023-01-19T11:44:20.842Z,13.25
2023-01-19T11:46:52.047Z,15.75
2023-01-19T11:49:25.988Z,15.60
2023-01-19T11:52:02.607Z,16.97
2023-01-19T11:54:34.673Z,23.55
2023-01-19T11:57:10.412Z,21.95
2023-01-19T11:59:36.931Z,20.90
2023-01-19T12:02:16.863Z,24.85
2023-01-19T12:04:44.952Z,17.95
2023-01-19T12:07:13.011Z,21.23
2023-01-19T12:09:45.527Z,22.90
2023-01-19T12:12:39.107Z,30.08
2023-01-19T12:15:14.973Z,23.13
2023-01-19T12:17:48.402Z,21.73
2023-01-19T12:20:27.816Z,22.30
2023-01-19T12:23:18.975Z,23.90
2023-01-19T12:26:15.855Z,21.75
2023-01-19T12:28:47.275Z,22.02
2023-01-19T12:31:18.683Z,21.42
2023-01-19T12:33:45.189Z,21.48
2023-01-19T12:36:26.564Z,17.35
2023-01-19T12:39:08.211Z,19.55
2023-01-19T12:41:39.563Z,20.17
2023-01-19T12:44:11.997Z,19.13
2023-01-19T12:46:42.017Z,18.15
2023-01-19T12:49:36.971Z,22.98
2023-01-19T12:52:26.237Z,23.73
2023-01-19T12:55:00.030Z,20.17
2023-01-19T12:57:48.596Z,19.25
2023-01-19T13:00:24.067Z,19.85
2023-01-19T13:02:59.403Z,22.17
2023-01-19T13:05:32.839Z,21.35
2023-01-19T13:08:02.390Z,20.37
2023-01-19T13:10:53.628Z,25.20
2023-01-19T13:13:25.538Z,28.05
2023-01-19T13:15:55.452Z,18.67
2023-01-19T13:18:24.551Z,21.35
2023-01-19T13:20:56.878Z,24.90
2023-01-19T13:23:26.024Z,35.63
2023-01-19T13:25:59.893Z,20.75
2023-01-19T13:28:42.283Z,31.27
2023-01-19T13:31:09.324Z,24.50
2023-01-19T13:33:55.977Z,23.83
2023-01-19T13:36:35.159Z,21.80
2023-01-19T13:39:07.761Z,29.27
2023-01-19T13:41:40.167Z,26.92
2023-01-19T13:44:13.643Z,27.25
2023-01-19T13:46:40.855Z,22.35
2023-01-19T13:49:18.955Z,25.75
2023-01-19T13:51:45.386Z,23.75
2023-01-19T13:54:16.472Z,25.95
2023-01-19T13:56:48.004Z,26.30
2023-01-19T13:59:14.331Z,27.88
2023-01-19T14:01:43.501Z,26.65
2023-01-19T14:04:33.136Z,31.95
2023-01-19T14:07:05.858Z,26.88
2023-01-19T14:09:32.261Z,27.92
2023-01-19T14:12:16.762Z,29.00
2023-01-19T14:14:45.634Z,25.48
2023-01-19T14:17:29.173Z,34.67
2023-01-19T14:19:59.799Z,30.10
2023-01-19T14:22:41.743Z,27.67
2023-01-19T14:25:33.976Z,26.75
2023-01-19T14:28:43.815Z,23.95
2023-01-19T14:31:24.837Z,32.00
2023-01-19T14:33:56.265Z,31.08
2023-01-19T14:36:26.474Z,25.13
2023-01-19T14:38:55.877Z,28.75
2023-01-19T14:41:30.192Z,31.33
2023-01-19T14:43:57.481Z,26.48
2023-01-19T14:46:24.744Z,31.50
2023-01-19T14:48:55.838Z,27.95
2023-01-19T14:51:24.270Z,35.53
2023-01-19T14:53:54.320Z,30.30
2023-01-19T14:56:29.417Z,35.67
2023-01-19T14:59:01.496Z,29.05
2023-01-19T15:01:28.762Z,28.40
2023-01-19T15:03:55.584Z,34.38
2023-01-19T15:06:23.466Z,35.63
2023-01-19T15:08:50.767Z,33.08
2023-01-19T15:11:40.485Z,29.45
2023-01-19T15:14:06.923Z,31.23
2023-01-19T15:16:34.634Z,33.63
2023-01-19T15:19:01.018Z,33.65
2023-01-19T15:21:27.359Z,38.17
2023-01-19T15:23:54.434Z,42.67
2023-01-19T15:26:24.773Z,37.22
2023-01-19T15:28:51.778Z,40.47
2023-01-19T15:31:20.688Z,44.15
2023-01-19T15:33:47.585Z,37.97
2023-01-19T15:36:19.813Z,39.55
2023-01-19T15:38:46.854Z,46.00
2023-01-19T15:41:23.449Z,43.05
2023-01-19T15:43:51.159Z,47.60
2023-01-19T15:46:20.968Z,39.55
2023-01-19T15:48:48.155Z,47.42
2023-01-19T15:51:16.873Z,46.75
2023-01-19T15:53:44.028Z,38.50
2023-01-19T15:56:16.356Z,41.53
2023-01-19T15:58:43.652Z,49.03
2023-01-19T16:01:14.292Z,40.58
2023-01-19T16:03:42.151Z,41.40
2023-01-19T16:06:10.577Z,42.20
2023-01-19T16:08:38.536Z,40.88
2023-01-19T16:11:11.717Z,43.60
2023-01-19T16:13:38.706Z,46.10
2023-01-19T16:16:16.152Z,44.50
2023-01-19T16:18:43.555Z,45.13
2023-01-19T16:21:10.128Z,52.47
2023-01-19T16:23:36.432Z,50.15
2023-01-19T16:26:07.080Z,47.95
2023-01-19T16:28:35.379Z,45.70
2023-01-19T16:31:01.688Z,57.20
2023-01-19T16:33:28.003Z,46.45
2023-01-19T16:35:54.324Z,54.33
2023-01-19T16:38:22.663Z,57.13
2023-01-19T16:40:49.118Z,59.25
2023-01-19T16:43:15.469Z,51.67
2023-01-19T16:46:02.533Z,61.05
2023-01-19T16:48:28.990Z,60.55
2023-01-19T16:51:05.948Z,57.05
2023-01-19T16:53:33.930Z,69.47
2023-01-19T16:56:21.790Z,71.60
2023-01-19T16:58:48.133Z,58.20
2023-01-19T17:01:19.661Z,66.07
2023-01-19T17:03:46.510Z,60.40
2023-01-19T17:06:15.115Z,69.93
2023-01-19T17:08:41.534Z,62.92
2023-01-19T17:11:13.905Z,66.22
2023-01-19T17:13:40.267Z,66.95
2023-01-19T17:16:07.252Z,65.88
2023-01-19T17:18:35.531Z,70.88
2023-01-19T17:21:04.666Z,61.90
2023-01-19T17:23:31.299Z,64.60
2023-01-19T17:25:58.753Z,73.65
2023-01-19T17:28:25.902Z,74.18
2023-01-19T17:30:52.786Z,69.03
2023-01-19T17:33:24.082Z,76.80
2023-01-19T17:35:50.557Z,76.30
2023-01-19T17:38:17.134Z,78.20
2023-01-19T17:40:43.423Z,82.25
2023-01-19T17:43:09.739Z,93.22
2023-01-19T17:45:36.880Z,97.22
2023-01-19T17:48:04.539Z,105.10
2023-01-19T17:50:32.882Z,99.03
2023-01-19T17:52:59.197Z,87.13
2023-01-19T17:55:25.567Z,82.78
2023-01-19T17:57:51.906Z,84.43
2023-01-19T18:00:18.740Z,88.43
2023-01-19T18:02:45.109Z,79.18
2023-01-19T18:05:11.889Z,73.38
2023-01-19T18:07:39.291Z,78.88
2023-01-19T18:10:07.391Z,77.60
2023-01-19T18:12:34.120Z,78.72
2023-01-19T18:15:00.425Z,80.65
2023-01-19T18:17:26.743Z,80.30
2023-01-19T18:19:53.061Z,83.13
2023-01-19T18:22:19.363Z,82.53
2023-01-19T18:24:45.664Z,85.22
2023-01-19T18:27:12.014Z,80.80
2023-01-19T18:29:38.362Z,85.75
2023-01-19T18:32:04.980Z,86.20
2023-01-19T18:34:31.345Z,90.30
2023-01-19T18:36:57.647Z,81.05
2023-01-19T18:39:24.025Z,83.40
2023-01-19T18:41:50.347Z,84.30
2023-01-19T18:44:16.647Z,75.00
2023-01-19T18:46:42.976Z,90.63
2023-01-19T18:49:09.344Z,88.85
2023-01-19T18:51:35.888Z,90.85
2023-01-19T18:54:02.238Z,90.68
2023-01-19T18:56:28.533Z,88.72
2023-01-19T18:58:54.966Z,88.88
2023-01-19T19:01:27.346Z,90.38
2023-01-19T19:03:55.491Z,95.25
2023-01-19T19:06:23.150Z,97.05
2023-01-19T19:08:51.435Z,95.40
2023-01-19T19:11:24.616Z,92.93
2023-01-19T19:13:56.064Z,100.57
2023-01-19T19:16:22.869Z,101.03
2023-01-19T19:18:49.351Z,103.88
2023-01-19T19:21:17.159Z,99.63
2023-01-19T19:23:43.535Z,97.35
2023-01-19T19:26:12.072Z,94.40
2023-01-19T19:28:40.155Z,101.35
2023-01-19T19:31:12.721Z,95.25
2023-01-19T19:33:39.714Z,91.50
2023-01-19T19:36:08.058Z,92.45
2023-01-19T19:38:34.941Z,94.10
2023-01-19T19:41:05.380Z,94.25
2023-01-19T19:43:32.683Z,94.93
2023-01-19T19:46:02.936Z,94.93
2023-01-19T19:48:29.315Z,95.10
2023-01-19T19:50:57.530Z,91.45
2023-01-19T19:53:26.569Z,100.05
2023-01-19T19:56:02.754Z,88.70
2023-01-19T19:58:29.621Z,87.60
2023-01-19T20:00:56.512Z,85.88
2023-01-19T20:03:26.140Z,90.07
2023-01-19T20:05:52.849Z,89.45
2023-01-19T20:08:19.264Z,92.40
2023-01-19T20:10:45.542Z,89.75
2023-01-19T20:13:11.840Z,88.53
2023-01-19T20:15:38.933Z,80.57
2023-01-19T20:18:06.178Z,88.18
2023-01-19T20:20:33.458Z,86.03
2023-01-19T20:23:00.961Z,85.43
2023-01-19T20:25:28.227Z,86.65
2023-01-19T20:27:55.383Z,82.80
2023-01-19T20:30:23.797Z,88.82
2023-01-19T20:32:50.126Z,77.70
2023-01-19T20:35:16.447Z,79.70
2023-01-19T20:37:42.741Z,81.63
2023-01-19T20:40:09.565Z,83.00
2023-01-19T20:42:35.967Z,77.95
2023-01-19T20:45:03.287Z,74.15
2023-01-19T20:47:29.630Z,83.82
2023-01-19T20:49:55.912Z,84.68
2023-01-19T20:52:22.211Z,84.97
2023-01-19T20:54:48.516Z,79.45
2023-01-19T20:57:14.867Z,79.07
2023-01-19T20:59:41.179Z,82.28
2023-01-19T21:02:07.536Z,81.75
2023-01-19T21:04:33.912Z,86.78
2023-01-19T21:07:00.222Z,82.72
2023-01-19T21:09:26.520Z,81.95
2023-01-19T21:11:52.812Z,84.50
2023-01-19T21:14:19.108Z,80.75
2023-01-19T21:16:45.514Z,80.05
2023-01-19T21:19:11.845Z,85.88
2023-01-19T21:21:38.195Z,76.35
2023-01-19T21:24:05.207Z,83.38
2023-01-19T21:26:31.655Z,75.72
2023-01-19T21:28:59.142Z,78.00
2023-01-19T21:31:27.687Z,70.22
2023-01-19T21:33:55.108Z,71.97
2023-01-19T21:36:21.530Z,70.70
2023-01-19T21:38:48.198Z,79.90
2023-01-19T21:41:14.812Z,74.03
2023-01-19T21:43:41.121Z,78.78
2023-01-19T21:46:19.852Z,78.20
2023-01-19T21:48:46.742Z,75.75
2023-01-19T21:51:14.279Z,74.45
2023-01-19T21:53:41.052Z,76.82
2023-01-19T21:56:09.403Z,72.07
2023-01-19T21:58:35.922Z,72.97
2023-01-19T22:01:07.864Z,82.10
2023-01-19T22:03:34.272Z,76.45
2023-01-19T22:06:05.442Z,73.40
2023-01-19T22:08:32.091Z,73.43
2023-01-19T22:11:09.815Z,73.82
2023-01-19T22:13:37.072Z,70.13
2023-01-19T22:16:05.487Z,77.30
2023-01-19T22:18:31.805Z,79.70
2023-01-19T22:21:07.775Z,75.18
2023-01-19T22:23:34.237Z,84.28
2023-01-19T22:26:00.608Z,87.60
2023-01-19T22:28:29.909Z,86.85
2023-01-19T22:31:03.412Z,80.00
2023-01-19T22:33:29.813Z,88.25
2023-01-19T22:36:08.884Z,84.25
2023-01-19T22:38:35.192Z,87.20
2023-01-19T22:41:01.557Z,75.93
2023-01-19T22:43:27.877Z,81.80
2023-01-19T22:45:54.194Z,78.22
2023-01-19T22:48:20.500Z,84.45
2023-01-19T22:50:46.787Z,84.00
2023-01-19T22:53:13.102Z,75.50
2023-01-19T22:55:39.406Z,82.32
2023-01-19T22:58:05.730Z,73.05
2023-01-19T23:00:32.049Z,82.63
2023-01-19T23:02:58.363Z,77.78
2023-01-19T23:05:24.663Z,71.05
2023-01-19T23:07:51.088Z,76.97
2023-01-19T23:10:17.454Z,74.50
2023-01-19T23:12:43.760Z,87.72
2023-01-19T23:15:10.412Z,80.25
2023-01-19T23:17:36.721Z,79.78
2023-01-19T23:20:04.032Z,85.30
2023-01-19T23:22:30.799Z,85.00
2023-01-19T23:24:57.104Z,83.28
2023-01-19T23:27:23.451Z,78.72
2023-01-19T23:29:49.755Z,85.60
2023-01-19T23:32:16.633Z,84.47
2023-01-19T23:34:43.027Z,90.63
2023-01-19T23:37:10.232Z,84.57
2023-01-19T23:39:36.981Z,86.97
2023-01-19T23:42:05.202Z,84.80
2023-01-19T23:44:31.516Z,84.25
2023-01-19T23:46:58.092Z,89.28
2023-01-19T23:49:24.672Z,80.80
2023-01-19T23:51:51.000Z,84.15
2023-01-19T23:54:17.592Z,80.15
2023-01-19T23:56:44.656Z,82.43
2023-01-19T23:59:13.507Z,86.00
